sensor_id;sensor_type;location;lat;lon;timestamp;P1;durP1;ratioP1;P2;durP2;ratioP2
11220;SDS011;8517;53.546;10.104;2023-05-23T00:00:14;9.73;;;8.50;;
11220;SDS011;8517;53.546;10.104;2023-05-23T00:02:41;9.63;;;8.67;;
11220;SDS011;8517;53.546;10.104;2023-05-23T00:05:09;9.23;;;8.37;;
11220;SDS011;8517;53.546;10.104;2023-05-23T00:07:36;9.17;;;8.37;;
11220;SDS011;8517;53.546;10.104;2023-05-23T00:10:03;9.63;;;8.20;;
11220;SDS011;8517;53.546;10.104;2023-05-23T00:12:30;8.87;;;8.07;;
11220;SDS011;8517;53.546;10.104;2023-05-23T00:14:58;9.50;;;8.60;;
11220;SDS011;8517;53.546;10.104;2023-05-23T00:17:25;9.80;;;8.80;;
11220;SDS011;8517;53.546;10.104;2023-05-23T00:19:52;9.77;;;8.87;;
11220;SDS011;8517;53.546;10.104;2023-05-23T00:22:21;10.20;;;8.73;;
11220;SDS011;8517;53.546;10.104;2023-05-23T00:24:48;9.77;;;8.90;;
11220;SDS011;8517;53.546;10.104;2023-05-23T00:27:14;9.60;;;8.67;;
11220;SDS011;8517;53.546;10.104;2023-05-23T00:29:41;10.77;;;8.50;;
11220;SDS011;8517;53.546;10.104;2023-05-23T00:32:08;9.97;;;9.07;;
11220;SDS011;8517;53.546;10.104;2023-05-23T00:34:35;10.50;;;9.60;;
11220;SDS011;8517;53.546;10.104;2023-05-23T00:37:02;10.27;;;9.27;;
11220;SDS011;8517;53.546;10.104;2023-05-23T00:39:32;10.53;;;9.63;;
11220;SDS011;8517;53.546;10.104;2023-05-23T00:42:03;10.93;;;9.93;;
11220;SDS011;8517;53.546;10.104;2023-05-23T00:44:31;11.27;;;10.17;;
11220;SDS011;8517;53.546;10.104;2023-05-23T00:46:58;11.57;;;10.37;;
11220;SDS011;8517;53.546;10.104;2023-05-23T00:49:25;11.90;;;10.77;;
11220;SDS011;8517;53.546;10.104;2023-05-23T00:51:53;11.50;;;10.23;;
11220;SDS011;8517;53.546;10.104;2023-05-23T00:54:22;12.43;;;11.23;;
11220;SDS011;8517;53.546;10.104;2023-05-23T00:56:52;12.30;;;10.60;;
11220;SDS011;8517;53.546;10.104;2023-05-23T00:59:20;12.07;;;10.93;;
11220;SDS011;8517;53.546;10.104;2023-05-23T01:01:48;12.30;;;11.10;;
11220;SDS011;8517;53.546;10.104;2023-05-23T01:04:16;13.33;;;12.07;;
11220;SDS011;8517;53.546;10.104;2023-05-23T01:06:44;13.03;;;11.47;;
11220;SDS011;8517;53.546;10.104;2023-05-23T01:09:13;14.63;;;13.13;;
11220;SDS011;8517;53.546;10.104;2023-05-23T01:11:42;13.13;;;11.93;;
11220;SDS011;8517;53.546;10.104;2023-05-23T01:14:18;15.10;;;13.60;;
11220;SDS011;8517;53.546;10.104;2023-05-23T01:16:50;14.47;;;12.37;;
11220;SDS011;8517;53.546;10.104;2023-05-23T01:19:33;14.43;;;13.23;;
11220;SDS011;8517;53.546;10.104;2023-05-23T01:22:17;14.27;;;12.97;;
11220;SDS011;8517;53.546;10.104;2023-05-23T01:24:52;15.17;;;13.77;;
11220;SDS011;8517;53.546;10.104;2023-05-23T01:27:23;13.50;;;12.30;;
11220;SDS011;8517;53.546;10.104;2023-05-23T01:30:06;15.17;;;13.30;;
11220;SDS011;8517;53.546;10.104;2023-05-23T01:32:36;13.73;;;12.57;;
11220;SDS011;8517;53.546;10.104;2023-05-23T01:35:05;14.50;;;13.20;;
11220;SDS011;8517;53.546;10.104;2023-05-23T01:37:32;14.43;;;12.97;;
11220;SDS011;8517;53.546;10.104;2023-05-23T01:39:59;14.40;;;13.10;;
11220;SDS011;8517;53.546;10.104;2023-05-23T01:42:26;14.33;;;13.03;;
11220;SDS011;8517;53.546;10.104;2023-05-23T01:44:54;14.77;;;13.37;;
11220;SDS011;8517;53.546;10.104;2023-05-23T01:47:23;14.63;;;13.30;;
11220;SDS011;8517;53.546;10.104;2023-05-23T01:49:50;14.90;;;13.70;;
11220;SDS011;8517;53.546;10.104;2023-05-23T01:52:18;15.00;;;13.60;;
11220;SDS011;8517;53.546;10.104;2023-05-23T01:54:46;16.37;;;14.77;;
11220;SDS011;8517;53.546;10.104;2023-05-23T01:57:13;15.47;;;14.03;;
11220;SDS011;8517;53.546;10.104;2023-05-23T01:59:40;15.73;;;14.23;;
11220;SDS011;8517;53.546;10.104;2023-05-23T02:02:09;15.60;;;14.17;;
11220;SDS011;8517;53.546;10.104;2023-05-23T02:04:36;17.07;;;14.93;;
11220;SDS011;8517;53.546;10.104;2023-05-23T02:07:03;17.63;;;16.03;;
11220;SDS011;8517;53.546;10.104;2023-05-23T02:09:31;24.53;;;22.07;;
11220;SDS011;8517;53.546;10.104;2023-05-23T02:11:58;27.00;;;24.40;;
11220;SDS011;8517;53.546;10.104;2023-05-23T02:14:24;29.57;;;26.87;;
11220;SDS011;8517;53.546;10.104;2023-05-23T02:16:52;31.20;;;28.23;;
11220;SDS011;8517;53.546;10.104;2023-05-23T02:19:20;31.70;;;28.67;;
11220;SDS011;8517;53.546;10.104;2023-05-23T02:21:47;34.33;;;31.13;;
11220;SDS011;8517;53.546;10.104;2023-05-23T02:24:14;38.93;;;35.17;;
11220;SDS011;8517;53.546;10.104;2023-05-23T02:26:41;36.00;;;32.60;;
11220;SDS011;8517;53.546;10.104;2023-05-23T02:29:07;37.37;;;33.73;;
11220;SDS011;8517;53.546;10.104;2023-05-23T02:31:35;35.73;;;32.13;;
11220;SDS011;8517;53.546;10.104;2023-05-23T02:34:02;34.03;;;30.93;;
11220;SDS011;8517;53.546;10.104;2023-05-23T02:36:30;33.47;;;30.27;;
11220;SDS011;8517;53.546;10.104;2023-05-23T02:38:57;32.70;;;29.50;;
11220;SDS011;8517;53.546;10.104;2023-05-23T02:41:24;35.87;;;32.27;;
11220;SDS011;8517;53.546;10.104;2023-05-23T02:43:51;36.93;;;33.23;;
11220;SDS011;8517;53.546;10.104;2023-05-23T02:46:18;36.57;;;32.87;;
11220;SDS011;8517;53.546;10.104;2023-05-23T02:48:45;38.33;;;34.27;;
11220;SDS011;8517;53.546;10.104;2023-05-23T02:51:11;38.13;;;34.03;;
11220;SDS011;8517;53.546;10.104;2023-05-23T02:53:40;38.30;;;34.17;;
11220;SDS011;8517;53.546;10.104;2023-05-23T02:56:07;38.60;;;33.73;;
11220;SDS011;8517;53.546;10.104;2023-05-23T02:58:33;39.73;;;32.83;;
11220;SDS011;8517;53.546;10.104;2023-05-23T03:01:01;43.93;;;35.33;;
11220;SDS011;8517;53.546;10.104;2023-05-23T03:03:28;41.07;;;36.13;;
11220;SDS011;8517;53.546;10.104;2023-05-23T03:05:55;43.87;;;34.47;;
11220;SDS011;8517;53.546;10.104;2023-05-23T03:08:22;42.83;;;33.87;;
11220;SDS011;8517;53.546;10.104;2023-05-23T03:10:51;40.17;;;34.57;;
11220;SDS011;8517;53.546;10.104;2023-05-23T03:13:18;43.40;;;34.67;;
11220;SDS011;8517;53.546;10.104;2023-05-23T03:15:45;41.07;;;32.90;;
11220;SDS011;8517;53.546;10.104;2023-05-23T03:18:12;37.10;;;32.60;;
11220;SDS011;8517;53.546;10.104;2023-05-23T03:20:38;41.33;;;32.63;;
11220;SDS011;8517;53.546;10.104;2023-05-23T03:23:05;41.20;;;31.77;;
11220;SDS011;8517;53.546;10.104;2023-05-23T03:25:32;40.40;;;31.53;;
11220;SDS011;8517;53.546;10.104;2023-05-23T03:28:01;38.67;;;30.93;;
11220;SDS011;8517;53.546;10.104;2023-05-23T03:30:27;38.30;;;29.87;;
11220;SDS011;8517;53.546;10.104;2023-05-23T03:32:54;36.97;;;28.70;;
11220;SDS011;8517;53.546;10.104;2023-05-23T03:35:21;35.10;;;28.63;;
11220;SDS011;8517;53.546;10.104;2023-05-23T03:37:48;34.37;;;29.40;;
11220;SDS011;8517;53.546;10.104;2023-05-23T03:40:14;35.40;;;29.87;;
11220;SDS011;8517;53.546;10.104;2023-05-23T03:42:41;37.20;;;29.33;;
11220;SDS011;8517;53.546;10.104;2023-05-23T03:45:09;37.83;;;30.20;;
11220;SDS011;8517;53.546;10.104;2023-05-23T03:47:36;39.33;;;32.37;;
11220;SDS011;8517;53.546;10.104;2023-05-23T03:50:03;37.50;;;31.93;;
11220;SDS011;8517;53.546;10.104;2023-05-23T03:52:31;36.93;;;30.93;;
11220;SDS011;8517;53.546;10.104;2023-05-23T03:54:57;35.87;;;29.60;;
11220;SDS011;8517;53.546;10.104;2023-05-23T03:57:24;35.93;;;30.17;;
11220;SDS011;8517;53.546;10.104;2023-05-23T03:59:51;36.50;;;30.70;;
11220;SDS011;8517;53.546;10.104;2023-05-23T04:02:19;36.03;;;30.67;;
11220;SDS011;8517;53.546;10.104;2023-05-23T04:04:46;35.50;;;29.03;;
11220;SDS011;8517;53.546;10.104;2023-05-23T04:07:13;37.47;;;29.33;;
11220;SDS011;8517;53.546;10.104;2023-05-23T04:09:40;34.40;;;28.27;;
11220;SDS011;8517;53.546;10.104;2023-05-23T04:12:07;35.70;;;28.83;;
11220;SDS011;8517;53.546;10.104;2023-05-23T04:14:34;67.87;;;53.83;;
11220;SDS011;8517;53.546;10.104;2023-05-23T04:17:03;46.70;;;38.57;;
11220;SDS011;8517;53.546;10.104;2023-05-23T04:19:34;39.40;;;31.73;;
11220;SDS011;8517;53.546;10.104;2023-05-23T04:22:01;35.37;;;29.03;;
11220;SDS011;8517;53.546;10.104;2023-05-23T04:24:27;37.03;;;32.83;;
11220;SDS011;8517;53.546;10.104;2023-05-23T04:26:54;40.03;;;34.33;;
11220;SDS011;8517;53.546;10.104;2023-05-23T04:29:21;40.53;;;31.03;;
11220;SDS011;8517;53.546;10.104;2023-05-23T04:31:50;33.90;;;28.67;;
11220;SDS011;8517;53.546;10.104;2023-05-23T04:34:16;49.90;;;41.27;;
11220;SDS011;8517;53.546;10.104;2023-05-23T04:36:47;41.30;;;30.57;;
11220;SDS011;8517;53.546;10.104;2023-05-23T04:39:14;33.70;;;26.70;;
11220;SDS011;8517;53.546;10.104;2023-05-23T04:41:41;32.23;;;25.30;;
11220;SDS011;8517;53.546;10.104;2023-05-23T04:44:09;30.00;;;24.37;;
11220;SDS011;8517;53.546;10.104;2023-05-23T04:46:38;33.00;;;24.57;;
11220;SDS011;8517;53.546;10.104;2023-05-23T04:49:06;29.87;;;25.47;;
11220;SDS011;8517;53.546;10.104;2023-05-23T04:51:32;35.57;;;26.03;;
11220;SDS011;8517;53.546;10.104;2023-05-23T04:54:01;37.00;;;27.43;;
11220;SDS011;8517;53.546;10.104;2023-05-23T04:56:28;31.93;;;25.53;;
11220;SDS011;8517;53.546;10.104;2023-05-23T04:58:55;34.20;;;25.97;;
11220;SDS011;8517;53.546;10.104;2023-05-23T05:01:25;36.07;;;25.80;;
11220;SDS011;8517;53.546;10.104;2023-05-23T05:03:52;34.93;;;26.10;;
11220;SDS011;8517;53.546;10.104;2023-05-23T05:06:18;31.57;;;26.17;;
11220;SDS011;8517;53.546;10.104;2023-05-23T05:08:46;80.53;;;59.87;;
11220;SDS011;8517;53.546;10.104;2023-05-23T05:11:14;36.87;;;27.87;;
11220;SDS011;8517;53.546;10.104;2023-05-23T05:13:41;39.17;;;28.40;;
11220;SDS011;8517;53.546;10.104;2023-05-23T05:16:07;38.07;;;25.83;;
11220;SDS011;8517;53.546;10.104;2023-05-23T05:18:50;35.20;;;26.87;;
11220;SDS011;8517;53.546;10.104;2023-05-23T05:21:18;37.57;;;26.30;;
11220;SDS011;8517;53.546;10.104;2023-05-23T05:23:45;38.07;;;27.53;;
11220;SDS011;8517;53.546;10.104;2023-05-23T05:26:12;37.27;;;27.60;;
11220;SDS011;8517;53.546;10.104;2023-05-23T05:28:40;38.93;;;28.93;;
11220;SDS011;8517;53.546;10.104;2023-05-23T05:31:06;38.00;;;28.43;;
11220;SDS011;8517;53.546;10.104;2023-05-23T05:33:34;35.50;;;27.10;;
11220;SDS011;8517;53.546;10.104;2023-05-23T05:36:01;35.20;;;26.50;;
11220;SDS011;8517;53.546;10.104;2023-05-23T05:38:28;34.87;;;26.60;;
11220;SDS011;8517;53.546;10.104;2023-05-23T05:40:55;34.60;;;27.07;;
11220;SDS011;8517;53.546;10.104;2023-05-23T05:43:24;34.40;;;28.03;;
11220;SDS011;8517;53.546;10.104;2023-05-23T05:45:51;35.43;;;26.93;;
11220;SDS011;8517;53.546;10.104;2023-05-23T05:48:18;35.60;;;28.70;;
11220;SDS011;8517;53.546;10.104;2023-05-23T05:50:45;39.17;;;30.00;;
11220;SDS011;8517;53.546;10.104;2023-05-23T05:53:12;37.77;;;27.90;;
11220;SDS011;8517;53.546;10.104;2023-05-23T05:55:39;35.30;;;28.13;;
11220;SDS011;8517;53.546;10.104;2023-05-23T05:58:05;132.43;;;108.53;;
11220;SDS011;8517;53.546;10.104;2023-05-23T06:00:34;39.50;;;32.27;;
11220;SDS011;8517;53.546;10.104;2023-05-23T06:03:06;36.40;;;27.87;;
11220;SDS011;8517;53.546;10.104;2023-05-23T06:05:32;40.03;;;27.97;;
11220;SDS011;8517;53.546;10.104;2023-05-23T06:08:01;32.90;;;27.30;;
11220;SDS011;8517;53.546;10.104;2023-05-23T06:10:28;33.80;;;26.53;;
11220;SDS011;8517;53.546;10.104;2023-05-23T06:12:56;35.63;;;27.33;;
11220;SDS011;8517;53.546;10.104;2023-05-23T06:15:24;35.47;;;27.97;;
11220;SDS011;8517;53.546;10.104;2023-05-23T06:17:52;34.77;;;28.73;;
11220;SDS011;8517;53.546;10.104;2023-05-23T06:20:19;40.80;;;29.53;;
11220;SDS011;8517;53.546;10.104;2023-05-23T06:22:45;38.57;;;28.43;;
11220;SDS011;8517;53.546;10.104;2023-05-23T06:25:12;38.90;;;29.63;;
11220;SDS011;8517;53.546;10.104;2023-05-23T06:27:39;40.77;;;29.83;;
11220;SDS011;8517;53.546;10.104;2023-05-23T06:30:06;43.70;;;31.97;;
11220;SDS011;8517;53.546;10.104;2023-05-23T06:32:36;44.97;;;31.57;;
11220;SDS011;8517;53.546;10.104;2023-05-23T06:35:05;43.43;;;31.70;;
11220;SDS011;8517;53.546;10.104;2023-05-23T06:37:32;42.90;;;31.63;;
11220;SDS011;8517;53.546;10.104;2023-05-23T06:39:59;42.50;;;33.37;;
11220;SDS011;8517;53.546;10.104;2023-05-23T06:42:26;45.37;;;31.93;;
11220;SDS011;8517;53.546;10.104;2023-05-23T06:44:53;44.03;;;32.17;;
11220;SDS011;8517;53.546;10.104;2023-05-23T06:47:20;40.43;;;30.07;;
11220;SDS011;8517;53.546;10.104;2023-05-23T06:49:47;35.40;;;28.53;;
11220;SDS011;8517;53.546;10.104;2023-05-23T06:52:15;40.17;;;30.20;;
11220;SDS011;8517;53.546;10.104;2023-05-23T06:54:42;36.07;;;27.40;;
11220;SDS011;8517;53.546;10.104;2023-05-23T06:57:09;36.93;;;27.37;;
11220;SDS011;8517;53.546;10.104;2023-05-23T06:59:36;32.97;;;26.03;;
11220;SDS011;8517;53.546;10.104;2023-05-23T07:02:02;31.97;;;24.90;;
11220;SDS011;8517;53.546;10.104;2023-05-23T07:04:29;31.50;;;24.23;;
11220;SDS011;8517;53.546;10.104;2023-05-23T07:06:56;31.50;;;25.87;;
11220;SDS011;8517;53.546;10.104;2023-05-23T07:09:24;41.10;;;29.90;;
11220;SDS011;8517;53.546;10.104;2023-05-23T07:11:51;33.43;;;25.43;;
11220;SDS011;8517;53.546;10.104;2023-05-23T07:14:18;32.90;;;25.50;;
11220;SDS011;8517;53.546;10.104;2023-05-23T07:16:45;25.90;;;21.77;;
11220;SDS011;8517;53.546;10.104;2023-05-23T07:19:12;22.40;;;19.97;;
11220;SDS011;8517;53.546;10.104;2023-05-23T07:21:38;22.70;;;19.43;;
11220;SDS011;8517;53.546;10.104;2023-05-23T07:27:07;21.00;;;18.90;;
11220;SDS011;8517;53.546;10.104;2023-05-23T07:29:33;17.00;;;14.57;;
11220;SDS011;8517;53.546;10.104;2023-05-23T07:32:00;16.03;;;13.90;;
11220;SDS011;8517;53.546;10.104;2023-05-23T07:34:27;17.33;;;12.00;;
11220;SDS011;8517;53.546;10.104;2023-05-23T07:36:54;12.00;;;10.73;;
11220;SDS011;8517;53.546;10.104;2023-05-23T07:39:21;10.97;;;9.87;;
11220;SDS011;8517;53.546;10.104;2023-05-23T07:41:48;12.03;;;10.40;;
11220;SDS011;8517;53.546;10.104;2023-05-23T07:44:17;13.10;;;9.87;;
11220;SDS011;8517;53.546;10.104;2023-05-23T07:46:44;11.30;;;9.37;;
11220;SDS011;8517;53.546;10.104;2023-05-23T07:49:11;12.10;;;10.93;;
11220;SDS011;8517;53.546;10.104;2023-05-23T07:51:38;11.77;;;10.50;;
11220;SDS011;8517;53.546;10.104;2023-05-23T07:54:05;11.30;;;10.07;;
11220;SDS011;8517;53.546;10.104;2023-05-23T07:56:32;13.60;;;9.73;;
11220;SDS011;8517;53.546;10.104;2023-05-23T07:58:59;10.00;;;9.00;;
11220;SDS011;8517;53.546;10.104;2023-05-23T08:01:27;9.43;;;8.43;;
11220;SDS011;8517;53.546;10.104;2023-05-23T08:03:54;12.53;;;9.10;;
11220;SDS011;8517;53.546;10.104;2023-05-23T08:06:21;10.93;;;8.67;;
11220;SDS011;8517;53.546;10.104;2023-05-23T08:08:47;9.53;;;8.03;;
11220;SDS011;8517;53.546;10.104;2023-05-23T08:11:15;9.80;;;8.80;;
11220;SDS011;8517;53.546;10.104;2023-05-23T08:13:41;35.93;;;29.57;;
11220;SDS011;8517;53.546;10.104;2023-05-23T08:16:08;11.10;;;9.90;;
11220;SDS011;8517;53.546;10.104;2023-05-23T08:18:36;9.73;;;8.77;;
11220;SDS011;8517;53.546;10.104;2023-05-23T08:21:03;9.27;;;8.40;;
11220;SDS011;8517;53.546;10.104;2023-05-23T08:23:30;13.43;;;7.90;;
11220;SDS011;8517;53.546;10.104;2023-05-23T08:25:57;9.13;;;7.43;;
11220;SDS011;8517;53.546;10.104;2023-05-23T08:28:24;10.43;;;7.00;;
11220;SDS011;8517;53.546;10.104;2023-05-23T08:30:50;7.37;;;6.67;;
11220;SDS011;8517;53.546;10.104;2023-05-23T08:33:18;7.90;;;6.73;;
11220;SDS011;8517;53.546;10.104;2023-05-23T08:35:46;7.63;;;6.83;;
11220;SDS011;8517;53.546;10.104;2023-05-23T08:38:12;7.70;;;7.00;;
11220;SDS011;8517;53.546;10.104;2023-05-23T08:40:39;8.03;;;6.63;;
11220;SDS011;8517;53.546;10.104;2023-05-23T08:43:13;7.67;;;6.60;;
11220;SDS011;8517;53.546;10.104;2023-05-23T08:45:40;7.03;;;6.33;;
11220;SDS011;8517;53.546;10.104;2023-05-23T08:48:07;5.37;;;4.87;;
11220;SDS011;8517;53.546;10.104;2023-05-23T08:50:35;6.13;;;5.27;;
11220;SDS011;8517;53.546;10.104;2023-05-23T08:53:06;5.50;;;4.90;;
11220;SDS011;8517;53.546;10.104;2023-05-23T08:55:36;7.10;;;4.73;;
11220;SDS011;8517;53.546;10.104;2023-05-23T08:58:03;4.77;;;4.20;;
11220;SDS011;8517;53.546;10.104;2023-05-23T09:00:30;4.90;;;4.50;;
11220;SDS011;8517;53.546;10.104;2023-05-23T09:02:58;5.17;;;4.70;;
11220;SDS011;8517;53.546;10.104;2023-05-23T09:05:25;6.73;;;6.03;;
11220;SDS011;8517;53.546;10.104;2023-05-23T09:07:52;7.20;;;5.27;;
11220;SDS011;8517;53.546;10.104;2023-05-23T09:10:22;6.47;;;5.80;;
11220;SDS011;8517;53.546;10.104;2023-05-23T09:12:49;5.37;;;4.87;;
11220;SDS011;8517;53.546;10.104;2023-05-23T09:15:16;6.63;;;5.60;;
11220;SDS011;8517;53.546;10.104;2023-05-23T09:17:43;8.13;;;7.30;;
11220;SDS011;8517;53.546;10.104;2023-05-23T09:20:11;6.60;;;5.97;;
11220;SDS011;8517;53.546;10.104;2023-05-23T09:22:39;8.30;;;5.93;;
11220;SDS011;8517;53.546;10.104;2023-05-23T09:25:06;6.40;;;5.60;;
11220;SDS011;8517;53.546;10.104;2023-05-23T09:27:35;7.80;;;5.87;;
11220;SDS011;8517;53.546;10.104;2023-05-23T09:30:05;10.50;;;7.77;;
11220;SDS011;8517;53.546;10.104;2023-05-23T09:32:32;10.13;;;7.13;;
11220;SDS011;8517;53.546;10.104;2023-05-23T09:35:00;10.90;;;8.80;;
11220;SDS011;8517;53.546;10.104;2023-05-23T09:37:28;8.97;;;7.77;;
11220;SDS011;8517;53.546;10.104;2023-05-23T09:39:57;10.53;;;8.20;;
11220;SDS011;8517;53.546;10.104;2023-05-23T09:42:24;11.87;;;8.73;;
11220;SDS011;8517;53.546;10.104;2023-05-23T09:44:57;10.70;;;7.97;;
11220;SDS011;8517;53.546;10.104;2023-05-23T09:47:24;11.40;;;8.00;;
11220;SDS011;8517;53.546;10.104;2023-05-23T09:49:52;11.10;;;8.33;;
11220;SDS011;8517;53.546;10.104;2023-05-23T09:52:18;9.13;;;7.40;;
11220;SDS011;8517;53.546;10.104;2023-05-23T09:54:45;9.93;;;7.47;;
11220;SDS011;8517;53.546;10.104;2023-05-23T09:57:13;8.00;;;7.10;;
11220;SDS011;8517;53.546;10.104;2023-05-23T09:59:41;8.83;;;6.70;;
11220;SDS011;8517;53.546;10.104;2023-05-23T10:02:16;8.27;;;5.70;;
11220;SDS011;8517;53.546;10.104;2023-05-23T10:05:07;7.60;;;5.53;;
11220;SDS011;8517;53.546;10.104;2023-05-23T10:07:35;7.47;;;5.00;;
11220;SDS011;8517;53.546;10.104;2023-05-23T10:10:03;6.47;;;4.90;;
11220;SDS011;8517;53.546;10.104;2023-05-23T10:12:41;8.43;;;4.60;;
11220;SDS011;8517;53.546;10.104;2023-05-23T10:15:12;8.80;;;4.40;;
11220;SDS011;8517;53.546;10.104;2023-05-23T10:17:48;5.80;;;4.50;;
11220;SDS011;8517;53.546;10.104;2023-05-23T10:20:24;5.10;;;4.23;;
11220;SDS011;8517;53.546;10.104;2023-05-23T10:22:53;5.67;;;4.10;;
11220;SDS011;8517;53.546;10.104;2023-05-23T10:25:21;9.10;;;4.40;;
11220;SDS011;8517;53.546;10.104;2023-05-23T10:27:48;4.57;;;3.90;;
11220;SDS011;8517;53.546;10.104;2023-05-23T10:30:22;7.53;;;4.00;;
11220;SDS011;8517;53.546;10.104;2023-05-23T10:32:51;6.07;;;4.17;;
11220;SDS011;8517;53.546;10.104;2023-05-23T10:35:20;6.30;;;4.03;;
11220;SDS011;8517;53.546;10.104;2023-05-23T10:37:54;9.87;;;6.47;;
11220;SDS011;8517;53.546;10.104;2023-05-23T10:40:27;6.40;;;4.10;;
11220;SDS011;8517;53.546;10.104;2023-05-23T10:43:02;7.33;;;3.63;;
11220;SDS011;8517;53.546;10.104;2023-05-23T10:45:38;5.80;;;3.40;;
11220;SDS011;8517;53.546;10.104;2023-05-23T10:48:18;5.53;;;3.20;;
11220;SDS011;8517;53.546;10.104;2023-05-23T10:51:00;5.33;;;3.17;;
11220;SDS011;8517;53.546;10.104;2023-05-23T10:53:29;9.40;;;3.30;;
11220;SDS011;8517;53.546;10.104;2023-05-23T10:55:56;7.83;;;3.47;;
11220;SDS011;8517;53.546;10.104;2023-05-23T10:58:23;5.80;;;2.87;;
11220;SDS011;8517;53.546;10.104;2023-05-23T11:00:50;5.13;;;3.10;;
11220;SDS011;8517;53.546;10.104;2023-05-23T11:03:30;10.23;;;3.53;;
11220;SDS011;8517;53.546;10.104;2023-05-23T11:06:01;6.53;;;3.30;;
11220;SDS011;8517;53.546;10.104;2023-05-23T11:08:35;4.27;;;2.80;;
11220;SDS011;8517;53.546;10.104;2023-05-23T11:11:04;5.87;;;3.87;;
11220;SDS011;8517;53.546;10.104;2023-05-23T11:16:24;7.80;;;2.83;;
11220;SDS011;8517;53.546;10.104;2023-05-23T11:18:58;10.97;;;2.90;;
11220;SDS011;8517;53.546;10.104;2023-05-23T11:21:51;6.50;;;3.20;;
11220;SDS011;8517;53.546;10.104;2023-05-23T11:24:22;8.60;;;3.20;;
11220;SDS011;8517;53.546;10.104;2023-05-23T11:26:53;7.43;;;3.70;;
11220;SDS011;8517;53.546;10.104;2023-05-23T11:29:24;11.47;;;5.47;;
11220;SDS011;8517;53.546;10.104;2023-05-23T11:31:52;19.90;;;13.50;;
11220;SDS011;8517;53.546;10.104;2023-05-23T11:34:21;9.07;;;4.20;;
11220;SDS011;8517;53.546;10.104;2023-05-23T11:36:51;9.10;;;4.00;;
11220;SDS011;8517;53.546;10.104;2023-05-23T11:39:19;6.97;;;3.77;;
11220;SDS011;8517;53.546;10.104;2023-05-23T11:41:49;7.93;;;3.60;;
11220;SDS011;8517;53.546;10.104;2023-05-23T11:44:23;7.40;;;3.80;;
11220;SDS011;8517;53.546;10.104;2023-05-23T11:47:00;9.30;;;3.77;;
11220;SDS011;8517;53.546;10.104;2023-05-23T11:49:29;6.03;;;3.20;;
11220;SDS011;8517;53.546;10.104;2023-05-23T11:51:57;10.10;;;3.23;;
11220;SDS011;8517;53.546;10.104;2023-05-23T11:54:25;9.67;;;3.70;;
11220;SDS011;8517;53.546;10.104;2023-05-23T11:56:51;5.77;;;2.87;;
11220;SDS011;8517;53.546;10.104;2023-05-23T11:59:20;10.63;;;3.30;;
11220;SDS011;8517;53.546;10.104;2023-05-23T12:01:47;7.57;;;3.20;;
11220;SDS011;8517;53.546;10.104;2023-05-23T12:04:14;10.93;;;3.70;;
11220;SDS011;8517;53.546;10.104;2023-05-23T12:06:44;7.20;;;3.20;;
11220;SDS011;8517;53.546;10.104;2023-05-23T12:09:12;11.57;;;3.43;;
11220;SDS011;8517;53.546;10.104;2023-05-23T12:11:39;13.93;;;3.77;;
11220;SDS011;8517;53.546;10.104;2023-05-23T12:14:07;14.67;;;3.60;;
11220;SDS011;8517;53.546;10.104;2023-05-23T12:16:34;10.43;;;3.80;;
11220;SDS011;8517;53.546;10.104;2023-05-23T12:19:02;11.47;;;3.90;;
11220;SDS011;8517;53.546;10.104;2023-05-23T12:21:39;10.73;;;3.80;;
11220;SDS011;8517;53.546;10.104;2023-05-23T12:24:15;12.70;;;4.07;;
11220;SDS011;8517;53.546;10.104;2023-05-23T12:26:49;8.57;;;3.70;;
11220;SDS011;8517;53.546;10.104;2023-05-23T12:29:20;11.40;;;4.13;;
11220;SDS011;8517;53.546;10.104;2023-05-23T12:31:47;10.63;;;4.37;;
11220;SDS011;8517;53.546;10.104;2023-05-23T12:34:24;12.83;;;4.17;;
11220;SDS011;8517;53.546;10.104;2023-05-23T12:36:53;11.03;;;3.40;;
11220;SDS011;8517;53.546;10.104;2023-05-23T12:39:24;12.47;;;4.10;;
11220;SDS011;8517;53.546;10.104;2023-05-23T12:41:52;12.53;;;4.33;;
11220;SDS011;8517;53.546;10.104;2023-05-23T12:44:22;10.30;;;4.20;;
11220;SDS011;8517;53.546;10.104;2023-05-23T12:46:55;9.70;;;3.80;;
11220;SDS011;8517;53.546;10.104;2023-05-23T12:49:22;13.93;;;4.10;;
11220;SDS011;8517;53.546;10.104;2023-05-23T12:51:48;10.03;;;3.97;;
11220;SDS011;8517;53.546;10.104;2023-05-23T12:54:16;13.27;;;4.23;;
11220;SDS011;8517;53.546;10.104;2023-05-23T12:56:44;7.97;;;3.40;;
11220;SDS011;8517;53.546;10.104;2023-05-23T12:59:11;11.43;;;3.53;;
11220;SDS011;8517;53.546;10.104;2023-05-23T13:01:37;9.43;;;3.33;;
11220;SDS011;8517;53.546;10.104;2023-05-23T13:04:04;10.80;;;3.83;;
11220;SDS011;8517;53.546;10.104;2023-05-23T13:06:31;9.90;;;3.70;;
11220;SDS011;8517;53.546;10.104;2023-05-23T13:08:58;11.23;;;4.10;;
11220;SDS011;8517;53.546;10.104;2023-05-23T13:11:25;8.90;;;3.80;;
11220;SDS011;8517;53.546;10.104;2023-05-23T13:13:54;12.80;;;3.77;;
11220;SDS011;8517;53.546;10.104;2023-05-23T13:16:21;9.67;;;4.47;;
11220;SDS011;8517;53.546;10.104;2023-05-23T13:18:47;11.70;;;3.90;;
11220;SDS011;8517;53.546;10.104;2023-05-23T13:21:14;12.73;;;3.50;;
11220;SDS011;8517;53.546;10.104;2023-05-23T13:23:41;9.73;;;3.93;;
11220;SDS011;8517;53.546;10.104;2023-05-23T13:26:08;9.00;;;3.60;;
11220;SDS011;8517;53.546;10.104;2023-05-23T13:28:35;13.93;;;3.97;;
11220;SDS011;8517;53.546;10.104;2023-05-23T13:31:03;9.80;;;3.50;;
11220;SDS011;8517;53.546;10.104;2023-05-23T13:33:31;9.60;;;3.40;;
11220;SDS011;8517;53.546;10.104;2023-05-23T13:35:57;12.87;;;5.13;;
11220;SDS011;8517;53.546;10.104;2023-05-23T13:38:24;14.60;;;3.77;;
11220;SDS011;8517;53.546;10.104;2023-05-23T13:40:51;13.57;;;3.97;;
11220;SDS011;8517;53.546;10.104;2023-05-23T13:43:19;9.87;;;3.77;;
11220;SDS011;8517;53.546;10.104;2023-05-23T13:45:46;12.90;;;3.90;;
11220;SDS011;8517;53.546;10.104;2023-05-23T13:48:14;14.30;;;4.20;;
11220;SDS011;8517;53.546;10.104;2023-05-23T13:50:41;10.03;;;3.90;;
11220;SDS011;8517;53.546;10.104;2023-05-23T13:53:07;11.00;;;3.80;;
11220;SDS011;8517;53.546;10.104;2023-05-23T13:55:39;11.87;;;4.00;;
11220;SDS011;8517;53.546;10.104;2023-05-23T13:58:05;12.80;;;3.80;;
11220;SDS011;8517;53.546;10.104;2023-05-23T14:00:32;11.23;;;4.17;;
11220;SDS011;8517;53.546;10.104;2023-05-23T14:02:59;10.57;;;4.03;;
11220;SDS011;8517;53.546;10.104;2023-05-23T14:05:27;10.77;;;3.40;;
11220;SDS011;8517;53.546;10.104;2023-05-23T14:07:54;13.20;;;3.93;;
11220;SDS011;8517;53.546;10.104;2023-05-23T14:10:21;12.83;;;3.57;;
11220;SDS011;8517;53.546;10.104;2023-05-23T14:12:48;12.23;;;3.83;;
11220;SDS011;8517;53.546;10.104;2023-05-23T14:15:15;12.93;;;3.60;;
11220;SDS011;8517;53.546;10.104;2023-05-23T14:17:42;10.70;;;3.60;;
11220;SDS011;8517;53.546;10.104;2023-05-23T14:20:09;12.13;;;3.97;;
11220;SDS011;8517;53.546;10.104;2023-05-23T14:22:38;12.00;;;3.70;;
11220;SDS011;8517;53.546;10.104;2023-05-23T14:25:05;10.17;;;3.50;;
11220;SDS011;8517;53.546;10.104;2023-05-23T14:27:32;10.27;;;3.60;;
11220;SDS011;8517;53.546;10.104;2023-05-23T14:29:59;13.13;;;3.60;;
11220;SDS011;8517;53.546;10.104;2023-05-23T14:32:25;13.87;;;4.10;;
11220;SDS011;8517;53.546;10.104;2023-05-23T14:34:52;9.60;;;3.67;;
11220;SDS011;8517;53.546;10.104;2023-05-23T14:37:19;12.87;;;3.57;;
11220;SDS011;8517;53.546;10.104;2023-05-23T14:39:47;13.53;;;3.40;;
11220;SDS011;8517;53.546;10.104;2023-05-23T14:42:14;13.67;;;4.00;;